Map

Track Data

SID SEASON NUMBER BASIN SUBBASIN NAME ISO_TIME NATURE LAT LON WMO_WIND WMO_PRES WMO_AGENCY TRACK_TYPE DIST2LAND LANDFALL IFLAG USA_AGENCY USA_ATCF_ID USA_LAT USA_LON USA_RECORD USA_STATUS USA_WIND USA_PRES USA_SSHS USA_R34_NE USA_R34_SE USA_R34_SW USA_R34_NW USA_R50_NE USA_R50_SE USA_R50_SW USA_R50_NW USA_R64_NE USA_R64_SE USA_R64_SW USA_R64_NW USA_POCI USA_ROCI USA_RMW USA_EYE TOKYO_LAT TOKYO_LON TOKYO_GRADE TOKYO_WIND TOKYO_PRES TOKYO_R50_DIR TOKYO_R50_LONG TOKYO_R50_SHORT TOKYO_R30_DIR TOKYO_R30_LONG TOKYO_R30_SHORT TOKYO_LAND CMA_LAT CMA_LON CMA_CAT CMA_WIND CMA_PRES HKO_LAT HKO_LON HKO_CAT HKO_WIND HKO_PRES NEWDELHI_LAT NEWDELHI_LON NEWDELHI_GRADE NEWDELHI_WIND NEWDELHI_PRES NEWDELHI_CI NEWDELHI_DP NEWDELHI_POCI REUNION_LAT REUNION_LON REUNION_TYPE REUNION_WIND REUNION_PRES REUNION_TNUM REUNION_CI REUNION_RMW REUNION_R34_NE REUNION_R34_SE REUNION_R34_SW REUNION_R34_NW REUNION_R50_NE REUNION_R50_SE REUNION_R50_SW REUNION_R50_NW REUNION_R64_NE REUNION_R64_SE REUNION_R64_SW REUNION_R64_NW BOM_LAT BOM_LON BOM_TYPE BOM_WIND BOM_PRES BOM_TNUM BOM_CI BOM_RMW BOM_R34_NE BOM_R34_SE BOM_R34_SW BOM_R34_NW BOM_R50_NE BOM_R50_SE BOM_R50_SW BOM_R50_NW BOM_R64_NE BOM_R64_SE BOM_R64_SW BOM_R64_NW BOM_ROCI BOM_POCI BOM_EYE BOM_POS_METHOD BOM_PRES_METHOD NADI_LAT NADI_LON NADI_CAT NADI_WIND NADI_PRES WELLINGTON_LAT WELLINGTON_LON WELLINGTON_WIND WELLINGTON_PRES DS824_LAT DS824_LON DS824_STAGE DS824_WIND DS824_PRES TD9636_LAT TD9636_LON TD9636_STAGE TD9636_WIND TD9636_PRES TD9635_LAT TD9635_LON TD9635_WIND TD9635_PRES TD9635_ROCI NEUMANN_LAT NEUMANN_LON NEUMANN_CLASS NEUMANN_WIND NEUMANN_PRES MLC_LAT MLC_LON MLC_CLASS MLC_WIND MLC_PRES USA_GUST BOM_GUST BOM_GUST_PER REUNION_GUST REUNION_GUST_PER USA_SEAHGT USA_SEARAD_NE USA_SEARAD_SE USA_SEARAD_SW USA_SEARAD_NW STORM_SPEED STORM_DIR
1905267N18276 1905 43 NA CS NOT_NAMED 1905-09-24 06:00:00 TS 17.7000 -84.0000 35 hurdat_atl main 214 211 O_____________ hurdat_atl AL031905 17.7000 -84.0000 TS 35 0 8 308
1905267N18276 1905 43 NA CS NOT_NAMED 1905-09-24 09:00:00 TS 17.9601 -84.3473 main 238 235 P_____________ AL031905 17.9601 -84.3473 TS 35 0 8 307
1905267N18276 1905 43 NA CS NOT_NAMED 1905-09-24 12:00:00 TS 18.2000 -84.7000 35 hurdat_atl main 257 257 O_____________ hurdat_atl AL031905 18.2000 -84.7000 TS 35 0 8 304
1905267N18276 1905 43 NA CS NOT_NAMED 1905-09-24 15:00:00 TS 18.4075 -85.0576 main 268 230 P_____________ AL031905 18.4075 -85.0576 TS 35 0 8 301
1905267N18276 1905 43 NA CS NOT_NAMED 1905-09-24 18:00:00 TS 18.6000 -85.4000 35 hurdat_atl main 230 194 O_____________ hurdat_atl AL031905 18.6000 -85.4000 TS 35 0 7 303
1905267N18276 1905 43 NA CS NOT_NAMED 1905-09-24 21:00:00 TS 18.7999 -85.7001 main 194 157 P_____________ AL031905 18.7999 -85.7001 TS 35 0 7 305
1905267N18276 1905 43 NA CS NOT_NAMED 1905-09-25 00:00:00 TS 19.0000 -86.0000 35 hurdat_atl main 157 120 O_____________ hurdat_atl AL031905 19.0000 -86.0000 TS 35 0 7 303
1905267N18276 1905 43 NA CS NOT_NAMED 1905-09-25 03:00:00 TS 19.1925 -86.3426 main 120 74 P_____________ AL031905 19.1925 -86.3426 TS 37 0 8 301
1905267N18276 1905 43 NA CS NOT_NAMED 1905-09-25 06:00:00 TS 19.4000 -86.7000 40 hurdat_atl main 74 43 O_____________ hurdat_atl AL031905 19.4000 -86.7000 TS 40 0 8 304
1905267N18276 1905 43 NA CS NOT_NAMED 1905-09-25 09:00:00 TS 19.6424 -87.0501 main 33 10 P_____________ AL031905 19.6424 -87.0501 TS 40 0 8 307
1905267N18276 1905 43 NA CS NOT_NAMED 1905-09-25 12:00:00 TS 19.9000 -87.4000 40 hurdat_atl main 10 0 O_____________ hurdat_atl AL031905 19.9000 -87.4000 TS 40 0 8 308
1905267N18276 1905 43 NA NA NOT_NAMED 1905-09-25 15:00:00 TS 20.1499 -87.7501 main 0 0 P_____________ AL031905 20.1499 -87.7501 TS 37 0 8 307
1905267N18276 1905 43 NA NA NOT_NAMED 1905-09-25 18:00:00 TS 20.4000 -88.1000 35 hurdat_atl main 0 0 O_____________ hurdat_atl AL031905 20.4000 -88.1000 TS 35 0 8 307
1905267N18276 1905 43 NA NA NOT_NAMED 1905-09-25 21:00:00 TS 20.6423 -88.4353 main 0 0 P_____________ AL031905 20.6423 -88.4353 TS 35 0 8 307
1905267N18276 1905 43 NA NA NOT_NAMED 1905-09-26 00:00:00 TS 20.9000 -88.8000 35 hurdat_atl main 0 0 O_____________ hurdat_atl AL031905 20.9000 -88.8000 TS 35 0 9 306
1905267N18276 1905 43 NA NA NOT_NAMED 1905-09-26 03:00:00 TS 21.1850 -89.2426 main 0 0 P_____________ AL031905 21.1850 -89.2426 TS 35 0 10 306
1905267N18276 1905 43 NA GM NOT_NAMED 1905-09-26 06:00:00 TS 21.5000 -89.7000 35 hurdat_atl main 33 33 O_____________ hurdat_atl AL031905 21.5000 -89.7000 TS 35 0 11 308
1905267N18276 1905 43 NA GM NOT_NAMED 1905-09-26 09:00:00 TS 21.8425 -90.1375 main 70 70 P_____________ AL031905 21.8425 -90.1375 TS 40 0 10 313
1905267N18276 1905 43 NA GM NOT_NAMED 1905-09-26 12:00:00 TS 22.2000 -90.5000 45 hurdat_atl main 124 124 O_____________ hurdat_atl AL031905 22.2000 -90.5000 TS 45 0 9 322
1905267N18276 1905 43 NA GM NOT_NAMED 1905-09-26 15:00:00 TS 22.5423 -90.7229 main 161 161 P_____________ AL031905 22.5423 -90.7229 TS 45 0 8 332
1905267N18276 1905 43 NA GM NOT_NAMED 1905-09-26 18:00:00 TS 22.9000 -90.9000 45 hurdat_atl main 210 210 O_____________ hurdat_atl AL031905 22.9000 -90.9000 TS 45 0 9 332
1905267N18276 1905 43 NA GM NOT_NAMED 1905-09-26 21:00:00 TS 23.2925 -91.1500 main 259 259 P_____________ AL031905 23.2925 -91.1500 TS 45 0 9 330
1905267N18276 1905 43 NA GM NOT_NAMED 1905-09-27 00:00:00 TS 23.7000 -91.4000 45 hurdat_atl main 311 311 O_____________ hurdat_atl AL031905 23.7000 -91.4000 TS 45 0 9 332
1905267N18276 1905 43 NA GM NOT_NAMED 1905-09-27 03:00:00 TS 24.1000 -91.6226 main 360 360 P_____________ AL031905 24.1000 -91.6226 TS 45 0 9 335
1905267N18276 1905 43 NA GM NOT_NAMED 1905-09-27 06:00:00 TS 24.5000 -91.8000 45 hurdat_atl main 409 409 O_____________ hurdat_atl AL031905 24.5000 -91.8000 TS 45 0 9 342
1905267N18276 1905 43 NA GM NOT_NAMED 1905-09-27 09:00:00 TS 24.9149 -91.9152 main 455 438 P_____________ AL031905 24.9149 -91.9152 TS 45 0 8 347
1905267N18276 1905 43 NA GM NOT_NAMED 1905-09-27 12:00:00 TS 25.3000 -92.0000 45 hurdat_atl main 438 408 O_____________ hurdat_atl AL031905 25.3000 -92.0000 TS 45 0 7 347
1905267N18276 1905 43 NA GM NOT_NAMED 1905-09-27 15:00:00 TS 25.6150 -92.1001 main 408 379 P_____________ AL031905 25.6150 -92.1001 TS 45 0 6 343
1905267N18276 1905 43 NA GM NOT_NAMED 1905-09-27 18:00:00 TS 25.9000 -92.2000 45 hurdat_atl main 379 351 O_____________ hurdat_atl AL031905 25.9000 -92.2000 TS 45 0 6 343
1905267N18276 1905 43 NA GM NOT_NAMED 1905-09-27 21:00:00 TS 26.1925 -92.3001 main 351 325 P_____________ AL031905 26.1925 -92.3001 TS 45 0 6 343
1905267N18276 1905 43 NA GM NOT_NAMED 1905-09-28 00:00:00 TS 26.5000 -92.4000 45 hurdat_atl main 325 300 O_____________ hurdat_atl AL031905 26.5000 -92.4000 TS 45 0 7 344
1905267N18276 1905 43 NA GM NOT_NAMED 1905-09-28 03:00:00 TS 26.8575 -92.5075 main 290 258 P_____________ AL031905 26.8575 -92.5075 TS 45 0 7 346
1905267N18276 1905 43 NA GM NOT_NAMED 1905-09-28 06:00:00 TS 27.2000 -92.6000 45 hurdat_atl main 258 236 O_____________ hurdat_atl AL031905 27.2000 -92.6000 TS 45 0 6 348
1905267N18276 1905 43 NA GM NOT_NAMED 1905-09-28 09:00:00 TS 27.4575 -92.6576 main 226 204 P_____________ AL031905 27.4575 -92.6576 TS 45 0 5 350
1905267N18276 1905 43 NA GM NOT_NAMED 1905-09-28 12:00:00 TS 27.7000 -92.7000 45 hurdat_atl main 204 174 O_____________ hurdat_atl AL031905 27.7000 -92.7000 TS 45 0 6 350
1905267N18276 1905 43 NA GM NOT_NAMED 1905-09-28 15:00:00 TS 28.0075 -92.7649 main 174 142 P_____________ AL031905 28.0075 -92.7649 TS 45 0 6 352
1905267N18276 1905 43 NA GM NOT_NAMED 1905-09-28 18:00:00 TS 28.3000 -92.8000 45 hurdat_atl main 142 121 O_____________ hurdat_atl AL031905 28.3000 -92.8000 TS 45 0 5 358
1905267N18276 1905 43 NA GM NOT_NAMED 1905-09-28 21:00:00 TS 28.5075 -92.7651 main 121 97 P_____________ AL031905 28.5075 -92.7651 TS 45 0 4 12
1905267N18276 1905 43 NA GM NOT_NAMED 1905-09-29 00:00:00 TS 28.7000 -92.7000 45 hurdat_atl main 97 73 O_____________ hurdat_atl AL031905 28.7000 -92.7000 TS 45 0 4 15
1905267N18276 1905 43 NA GM NOT_NAMED 1905-09-29 03:00:00 TS 28.9338 -92.6409 main 73 44 P_____________ AL031905 28.9338 -92.6409 TS 45 0 5 10
1905267N18276 1905 43 NA GM NOT_NAMED 1905-09-29 06:00:00 TS 29.2000 -92.6000 45 hurdat_atl main 44 11 O_____________ hurdat_atl AL031905 29.2000 -92.6000 TS 45 0 6 3
1905267N18276 1905 43 NA GM NOT_NAMED 1905-09-29 09:00:00 TS 29.4982 -92.6182 main 11 0 P_____________ AL031905 29.4982 -92.6182 TS 45 0 6 0
1905267N18276 1905 43 NA GM NOT_NAMED 1905-09-29 10:00:00 TS 29.6000 -92.6000 45 hurdat_atl main 0 0 O_____________ hurdat_atl AL031905 29.6000 -92.6000 L TS 45 0 6 19
1905267N18276 1905 43 NA NA NOT_NAMED 1905-09-29 12:00:00 TS 29.8000 -92.5000 40 hurdat_atl main 0 0 O_____________ hurdat_atl AL031905 29.8000 -92.5000 TS 40 0 8 31
1905267N18276 1905 43 NA NA NOT_NAMED 1905-09-29 15:00:00 TS 30.1573 -92.2093 main 0 0 P_____________ AL031905 30.1573 -92.2093 TS 37 0 10 37
1905267N18276 1905 43 NA NA NOT_NAMED 1905-09-29 18:00:00 TS 30.6000 -91.8000 35 hurdat_atl main 0 0 O_____________ hurdat_atl AL031905 30.6000 -91.8000 TS 35 0 13 40
1905267N18276 1905 43 NA NA NOT_NAMED 1905-09-29 21:00:00 TS 31.1130 -91.2766 main 0 0 P_____________ AL031905 31.1130 -91.2766 TS 35 0 13 35
1905267N18276 1905 43 NA NA NOT_NAMED 1905-09-30 00:00:00 TS 31.7000 -90.9000 35 hurdat_atl main 0 0 O_____________ hurdat_atl AL031905 31.7000 -90.9000 TS 35 0 13 14
1905267N18276 1905 43 NA NA NOT_NAMED 1905-09-30 03:00:00 TS 32.3496 -90.9216 main 0 0 P_____________ AL031905 32.3496 -90.9216 TS 35 0 13 349
1905267N18276 1905 43 NA NA NOT_NAMED 1905-09-30 06:00:00 TS 33.0000 -91.2000 35 hurdat_atl main 0 0 O_____________ hurdat_atl AL031905 33.0000 -91.2000 TS 35 0 13 338
1905267N18276 1905 43 NA NA NOT_NAMED 1905-09-30 09:00:00 TS 33.5946 -91.5176 main 0 0 P_____________ AL031905 33.5946 -91.5176 TS 35 0 13 329
1905267N18276 1905 43 NA NA NOT_NAMED 1905-09-30 12:00:00 TS 34.1000 -92.0000 35 hurdat_atl main 0 0 O_____________ hurdat_atl AL031905 34.1000 -92.0000 TS 35 0 13 314
1905267N18276 1905 43 NA NA NOT_NAMED 1905-09-30 15:00:00 TS 34.4862 -92.6516 main 0 0 P_____________ AL031905 34.4862 -92.6516 TS 32 -1 13 301
1905267N18276 1905 43 NA NA NOT_NAMED 1905-09-30 18:00:00 TS 34.8000 -93.4000 30 hurdat_atl main 0 O_____________ hurdat_atl AL031905 34.8000 -93.4000 TD 30 -1 14 297

About IBTrACS Database

This database is a web-friendly format of International Best Track Archive for Climate Stewardship (IBTrACS), a global best track data archive curated by NOAA dating back to 1842.

Updated: 2021-10-21